createdAt,value
2018-07-12T00:00:18.669Z,4.8
2018-07-12T00:02:18.499Z,1.7
2018-07-12T00:04:19.324Z,1.8
2018-07-12T00:06:19.309Z,1.3
2018-07-12T00:08:18.097Z,1.4
2018-07-12T00:10:19.339Z,1.6
2018-07-12T00:12:18.126Z,4.1
2018-07-12T00:14:18.938Z,1.8
2018-07-12T00:16:18.834Z,2.8
2018-07-12T00:18:18.708Z,1.4
2018-07-12T00:20:18.536Z,3
2018-07-12T00:22:18.330Z,7.5
2018-07-12T00:24:19.107Z,1.8
2018-07-12T00:26:19.354Z,5.3
2018-07-12T00:28:18.153Z,2.6
2018-07-12T00:30:17.967Z,9.8
2018-07-12T00:32:17.770Z,2.1
2018-07-12T00:34:18.559Z,2
2018-07-12T00:36:19.094Z,2.6
2018-07-12T00:38:17.884Z,5.4
2018-07-12T00:40:19.126Z,1.5
2018-07-12T00:42:18.922Z,2.5
2018-07-12T00:44:18.715Z,2.5
2018-07-12T00:46:18.269Z,1.7
2018-07-12T00:48:19.057Z,2.2
2018-07-12T00:50:18.872Z,5.8
2018-07-12T00:52:19.658Z,1.5
2018-07-12T00:54:18.456Z,2.3
2018-07-12T00:56:19.495Z,2.5
2018-07-12T00:58:18.299Z,2.9
2018-07-12T01:00:19.157Z,3.5
2018-07-12T01:02:18.940Z,6.2
2018-07-12T01:04:17.732Z,1.9
2018-07-12T01:06:18.293Z,1.9
2018-07-12T01:08:19.078Z,1.6
2018-07-12T01:10:18.360Z,5.3
2018-07-12T01:12:18.156Z,1.9
2018-07-12T01:14:17.929Z,1.9
2018-07-12T01:16:19.471Z,1.7
2018-07-12T01:18:19.348Z,5.8
2018-07-12T01:20:18.201Z,2.5
2018-07-12T01:22:18.987Z,1.5
2018-07-12T01:24:18.812Z,4.1
2018-07-12T01:26:19.481Z,1.8
2018-07-12T01:28:19.272Z,2.6
2018-07-12T01:30:18.139Z,1.4
2018-07-12T01:32:19.213Z,3.4
2018-07-12T01:34:19.028Z,2.1
2018-07-12T01:36:19.165Z,2.6
2018-07-12T01:38:18.941Z,1.8
2018-07-12T01:40:19.228Z,5.5
2018-07-12T01:42:18.753Z,1.3
2018-07-12T01:44:19.542Z,1.2
2018-07-12T01:46:19.664Z,2.5
2018-07-12T01:48:19.463Z,2.4
2018-07-12T01:50:19.263Z,1.3
2018-07-12T01:52:19.051Z,3.3
2018-07-12T01:54:18.825Z,1.9
2018-07-12T01:56:19.700Z,1.7
2018-07-12T01:58:19.503Z,4.3
2018-07-12T02:00:19.315Z,5.1
2018-07-12T02:02:18.084Z,2.3
2018-07-12T02:04:18.872Z,2.5
2018-07-12T02:06:18.968Z,2.8
2018-07-12T02:08:18.768Z,2.6
2018-07-12T02:10:19.030Z,3.8
2018-07-12T02:12:18.825Z,1.7
2018-07-12T02:14:19.621Z,3
2018-07-12T02:16:19.713Z,7.3
2018-07-12T02:18:19.587Z,1.7
2018-07-12T02:20:19.367Z,6
2018-07-12T02:22:19.135Z,2.1
2018-07-12T02:24:17.972Z,3.8
2018-07-12T02:26:19.544Z,6.8
2018-07-12T02:28:19.320Z,2.8
2018-07-12T02:30:19.110Z,2.7
2018-07-12T02:32:18.892Z,5.7
2018-07-12T02:34:19.713Z,6.7
2018-07-12T02:36:17.915Z,3.5
2018-07-12T02:38:19.687Z,1.6
2018-07-12T02:40:19.078Z,2.1
2018-07-12T02:42:18.851Z,1.9
2018-07-12T02:44:19.672Z,2.6
2018-07-12T02:46:19.128Z,2.9
2018-07-12T02:48:18.913Z,1.7
2018-07-12T02:50:19.736Z,3.2
2018-07-12T02:52:19.525Z,5.5
2018-07-12T02:54:19.296Z,1.6
2018-07-12T02:56:18.868Z,1.6
2018-07-12T02:58:19.665Z,3.4
2018-07-12T03:00:19.500Z,3.4
2018-07-12T03:02:19.295Z,2.1
2018-07-12T03:04:19.076Z,1.6
2018-07-12T03:06:19.252Z,3.6
2018-07-12T03:08:19.028Z,3.5
2018-07-12T03:10:19.285Z,4.8
2018-07-12T03:12:19.079Z,2.1
2018-07-12T03:14:18.857Z,6.5
2018-07-12T03:16:18.925Z,3.6
2018-07-12T03:18:18.770Z,3
2018-07-12T03:20:19.588Z,1.4
2018-07-12T03:22:19.623Z,1
2018-07-12T03:24:19.412Z,1.3
2018-07-12T03:26:18.991Z,0.9
2018-07-12T03:28:18.791Z,1.6
2018-07-12T03:30:19.591Z,1.9
2018-07-12T03:32:19.348Z,1.8
2018-07-12T03:34:19.106Z,1.3
2018-07-12T03:36:19.304Z,10.1
2018-07-12T03:38:19.080Z,4.2
2018-07-12T03:40:19.389Z,2.6
2018-07-12T03:42:19.173Z,1.5
2018-07-12T03:44:18.941Z,1.3
2018-07-12T03:46:19.106Z,1.4
2018-07-12T03:48:18.900Z,1
2018-07-12T03:50:19.712Z,1.6
2018-07-12T03:52:19.494Z,1.4
2018-07-12T03:54:19.282Z,0.9
2018-07-12T03:56:19.020Z,7.9
2018-07-12T03:58:18.794Z,5.6
2018-07-12T04:00:19.596Z,0.9
2018-07-12T04:02:19.407Z,2.7
2018-07-12T04:04:19.195Z,1.1
2018-07-12T04:06:18.776Z,0.8
2018-07-12T04:08:19.559Z,1.6
2018-07-12T04:10:18.794Z,1.4
2018-07-12T04:12:19.587Z,0.9
2018-07-12T04:14:19.375Z,1.1
2018-07-12T04:16:18.938Z,2.4
2018-07-12T04:18:18.797Z,0.5
2018-07-12T04:20:19.586Z,0.6
2018-07-12T04:22:19.369Z,0.9
2018-07-12T04:24:19.153Z,3.9
2018-07-12T04:26:19.207Z,0.6
2018-07-12T04:28:19.007Z,0.9
2018-07-12T04:30:18.809Z,2.8
2018-07-12T04:32:19.601Z,0.8
2018-07-12T04:34:19.386Z,2.5
2018-07-12T04:36:18.916Z,0.6
2018-07-12T04:38:19.690Z,4.7
2018-07-12T04:40:18.940Z,0.4
2018-07-12T04:42:18.716Z,0.9
2018-07-12T04:44:19.525Z,0.6
2018-07-12T04:46:19.099Z,0.6
2018-07-12T04:48:18.901Z,1.3
2018-07-12T04:50:19.725Z,0.9
2018-07-12T04:52:19.535Z,0.7
2018-07-12T04:54:19.312Z,1.1
2018-07-12T04:56:19.045Z,1.3
2018-07-12T04:58:19.268Z,1
2018-07-12T05:00:19.157Z,2
2018-07-12T05:02:18.913Z,1.1
2018-07-12T05:04:19.721Z,0.8
2018-07-12T05:06:18.800Z,0.8
2018-07-12T05:08:19.598Z,0.7
2018-07-12T05:10:18.865Z,0.9
2018-07-12T05:12:19.627Z,0.8
2018-07-12T05:14:19.410Z,1.7
2018-07-12T05:16:19.199Z,0.5
2018-07-12T05:18:19.127Z,2.5
2018-07-12T05:20:18.931Z,1.1
2018-07-12T05:22:18.714Z,0.8
2018-07-12T05:24:19.499Z,1
2018-07-12T05:26:19.592Z,1.7
2018-07-12T05:28:19.388Z,2.8
2018-07-12T05:30:19.166Z,1.2
2018-07-12T05:32:18.964Z,1.8
2018-07-12T05:34:18.765Z,1.4
2018-07-12T05:36:19.361Z,2.5
2018-07-12T05:38:19.171Z,1.5
2018-07-12T05:40:19.427Z,1.8
2018-07-12T05:42:19.195Z,2
2018-07-12T05:44:18.992Z,1.9
2018-07-12T05:46:19.636Z,1.5
2018-07-12T05:48:19.441Z,2
2018-07-12T05:50:19.239Z,3.2
2018-07-12T05:52:19.074Z,2.2
2018-07-12T05:54:18.845Z,2
2018-07-12T05:56:19.448Z,1.4
2018-07-12T05:58:19.221Z,2
2018-07-12T06:00:18.983Z,1.3
2018-07-12T06:02:18.765Z,1.7
2018-07-12T06:04:19.560Z,1.3
2018-07-12T06:06:19.619Z,3.3
2018-07-12T06:08:19.418Z,1
2018-07-12T06:10:19.694Z,1.2
2018-07-12T06:12:19.487Z,1.3
2018-07-12T06:14:19.274Z,2.1
2018-07-12T06:16:19.345Z,3.3
2018-07-12T06:18:19.250Z,3.3
2018-07-12T06:20:19.027Z,2.3
2018-07-12T06:22:18.781Z,4.7
2018-07-12T06:24:19.587Z,2.3
2018-07-12T06:26:19.277Z,2.5
2018-07-12T06:28:19.044Z,6.5
2018-07-12T06:30:18.833Z,2.6
2018-07-12T06:32:19.608Z,2.8
2018-07-12T06:34:19.390Z,3.1
2018-07-12T06:36:18.943Z,2.8
2018-07-12T06:38:18.734Z,5.7
2018-07-12T06:40:18.988Z,4.3
2018-07-12T06:42:18.764Z,6.6
2018-07-12T06:44:19.560Z,3.5
2018-07-12T06:46:19.695Z,4.9
2018-07-12T06:48:19.470Z,7.4
2018-07-12T06:50:19.245Z,5.8
2018-07-12T06:52:19.027Z,3.5
2018-07-12T06:54:18.813Z,2.7
2018-07-12T06:56:19.208Z,0
2018-07-12T06:58:18.998Z,0
2018-07-12T07:00:18.802Z,0
2018-07-12T07:02:19.606Z,0
2018-07-12T07:04:18.395Z,0
2018-07-12T07:06:19.508Z,0
2018-07-12T07:08:19.313Z,0
2018-07-12T07:10:19.557Z,0
2018-07-12T07:12:19.340Z,0
2018-07-12T07:14:19.129Z,0
2018-07-12T07:16:19.397Z,0
2018-07-12T07:18:19.249Z,0
2018-07-12T07:20:19.063Z,0
2018-07-12T07:22:18.834Z,0
2018-07-12T07:24:19.602Z,0
2018-07-12T07:26:19.371Z,0
2018-07-12T07:28:19.241Z,0
2018-07-12T07:30:19.027Z,0
2018-07-12T07:32:18.870Z,0
2018-07-12T07:34:19.659Z,0
2018-07-12T07:36:19.281Z,0
2018-07-12T07:38:19.097Z,0
2018-07-12T07:40:19.384Z,0
2018-07-12T07:42:19.199Z,0
2018-07-12T07:44:19.032Z,0
2018-07-12T07:46:19.130Z,0
2018-07-12T07:48:18.919Z,0
2018-07-12T07:50:19.757Z,0
2018-07-12T07:52:19.570Z,0
2018-07-12T07:54:19.371Z,0
2018-07-12T07:56:18.600Z,0
2018-07-12T07:58:19.388Z,0.1
2018-07-12T08:00:19.274Z,0
2018-07-12T08:02:19.068Z,0
2018-07-12T08:04:18.844Z,0
2018-07-12T08:06:17.952Z,0
2018-07-12T08:08:18.711Z,0
2018-07-12T08:10:18.973Z,0
2018-07-12T08:12:18.741Z,0
2018-07-12T08:14:19.527Z,0
2018-07-12T08:16:18.939Z,0
2018-07-12T08:18:17.798Z,0
2018-07-12T08:20:18.601Z,0.2
2018-07-12T08:22:19.403Z,0
2018-07-12T08:24:19.208Z,0
2018-07-12T08:26:19.286Z,0
2018-07-12T08:28:19.053Z,0
2018-07-12T08:30:18.857Z,0
2018-07-12T08:32:19.660Z,0
2018-07-12T08:34:19.456Z,0
2018-07-12T08:36:19.107Z,0
2018-07-12T08:38:18.935Z,0
2018-07-12T08:40:18.193Z,0.4
2018-07-12T08:42:19.033Z,0
2018-07-12T08:44:18.822Z,0
2018-07-12T08:46:19.756Z,0
2018-07-12T08:48:18.724Z,0
2018-07-12T08:50:19.552Z,0.7
2018-07-12T08:52:19.347Z,0.4
2018-07-12T08:54:18.124Z,0
2018-07-12T08:56:19.254Z,0
2018-07-12T08:58:19.046Z,0
2018-07-12T09:00:18.865Z,0
2018-07-12T09:02:19.668Z,0
2018-07-12T09:04:19.460Z,0
2018-07-12T09:06:19.207Z,0
2018-07-12T09:08:17.997Z,6.4
2018-07-12T09:10:19.262Z,0
2018-07-12T09:12:18.050Z,0
2018-07-12T09:14:17.834Z,0
2018-07-12T09:16:17.931Z,0
2018-07-12T09:18:18.793Z,0
2018-07-12T09:20:18.590Z,0
2018-07-12T09:22:19.410Z,0
2018-07-12T09:24:18.197Z,0
2018-07-12T09:26:18.724Z,0
2018-07-12T09:28:19.553Z,1.3
2018-07-12T09:30:19.423Z,0
2018-07-12T09:32:18.194Z,0
2018-07-12T09:34:18.954Z,0
2018-07-12T09:36:19.467Z,0
2018-07-12T09:38:18.253Z,0
2018-07-12T09:40:18.561Z,0
2018-07-12T09:42:18.335Z,0
2018-07-12T09:44:18.131Z,0
2018-07-12T09:46:19.724Z,0
2018-07-12T09:48:18.581Z,0
2018-07-12T09:50:19.377Z,0
2018-07-12T09:52:19.178Z,0
2018-07-12T09:54:17.968Z,0
2018-07-12T09:56:18.939Z,0
2018-07-12T09:58:17.813Z,0
2018-07-12T10:00:19.629Z,0
2018-07-12T10:02:19.444Z,0
2018-07-12T10:04:19.251Z,0
2018-07-12T10:06:18.340Z,0
2018-07-12T10:08:19.140Z,0
2018-07-12T10:10:19.363Z,0
2018-07-12T10:12:18.158Z,0
2018-07-12T10:14:18.938Z,0
2018-07-12T10:16:19.040Z,0
2018-07-12T10:18:18.933Z,0
2018-07-12T10:20:19.760Z,0
2018-07-12T10:22:19.547Z,0
2018-07-12T10:24:19.354Z,0
2018-07-12T10:26:18.557Z,0
2018-07-12T10:28:19.379Z,1.5
2018-07-12T10:30:19.185Z,0
2018-07-12T10:32:17.991Z,0
2018-07-12T10:34:17.765Z,0
2018-07-12T10:36:18.873Z,0
2018-07-12T10:38:19.682Z,0
2018-07-12T10:40:17.946Z,0
2018-07-12T10:42:18.734Z,0
2018-07-12T10:44:18.517Z,0
2018-07-12T10:46:19.114Z,0
2018-07-12T10:48:18.881Z,0
2018-07-12T10:50:19.677Z,0
2018-07-12T10:52:19.485Z,0
2018-07-12T10:54:19.265Z,0
2018-07-12T10:56:19.399Z,0
2018-07-12T10:58:19.212Z,0
2018-07-12T11:00:19.063Z,0
2018-07-12T11:02:17.852Z,0
2018-07-12T11:04:19.666Z,0
2018-07-12T11:06:18.298Z,0.3
2018-07-12T11:08:19.090Z,0
2018-07-12T11:10:18.345Z,0
2018-07-12T11:12:18.189Z,0
2018-07-12T11:14:18.983Z,0
2018-07-12T11:16:18.563Z,0
2018-07-12T11:18:18.431Z,0
2018-07-12T11:20:19.224Z,0
2018-07-12T11:22:18.002Z,0
2018-07-12T11:24:17.810Z,0
2018-07-12T11:26:18.326Z,0
2018-07-12T11:28:18.126Z,0
2018-07-12T11:30:18.079Z,0
2018-07-12T11:32:17.944Z,0
2018-07-12T11:34:17.748Z,0
2018-07-12T11:36:18.473Z,0.2
2018-07-12T11:38:18.290Z,0
2018-07-12T11:40:18.531Z,0
2018-07-12T11:42:18.311Z,0
2018-07-12T11:44:18.110Z,0
2018-07-12T11:46:17.741Z,0
2018-07-12T11:48:18.547Z,0
2018-07-12T11:50:18.340Z,0
2018-07-12T11:52:18.127Z,0
2018-07-12T11:54:17.906Z,0
2018-07-12T11:56:18.999Z,0
2018-07-12T11:58:17.808Z,0
2018-07-12T12:00:18.623Z,0
2018-07-12T12:02:18.419Z,0
2018-07-12T12:04:18.216Z,0
2018-07-12T12:06:18.259Z,0
2018-07-12T12:08:19.061Z,0
2018-07-12T12:10:18.532Z,0
2018-07-12T12:12:18.330Z,0
2018-07-12T12:14:18.136Z,0
2018-07-12T12:16:18.741Z,0
2018-07-12T12:18:18.625Z,0
2018-07-12T12:20:18.485Z,0
2018-07-12T12:22:18.301Z,0
2018-07-12T12:24:18.085Z,0
2018-07-12T12:26:18.628Z,0
2018-07-12T12:28:18.449Z,0
2018-07-12T12:30:18.260Z,0
2018-07-12T12:32:18.088Z,0
2018-07-12T12:34:17.918Z,0
2018-07-12T12:36:18.657Z,0
2018-07-12T12:38:18.468Z,0
2018-07-12T12:40:17.764Z,0
2018-07-12T12:42:18.572Z,0
2018-07-12T12:44:18.392Z,0
2018-07-12T12:46:17.862Z,0
2018-07-12T12:48:18.647Z,0
2018-07-12T12:50:18.480Z,0
2018-07-12T12:52:18.285Z,0
2018-07-12T12:54:18.083Z,0
2018-07-12T12:56:18.715Z,0
2018-07-12T12:58:18.507Z,0
2018-07-12T13:00:18.293Z,0
2018-07-12T13:02:18.078Z,0
2018-07-12T13:04:17.913Z,0
2018-07-12T13:06:18.073Z,0
2018-07-12T13:08:17.900Z,0
2018-07-12T13:10:18.234Z,0
2018-07-12T13:12:18.046Z,0
2018-07-12T13:14:17.920Z,0
2018-07-12T13:16:18.517Z,0
2018-07-12T13:18:18.416Z,0
2018-07-12T13:20:18.265Z,0
2018-07-12T13:22:18.068Z,0
2018-07-12T13:24:17.852Z,0
2018-07-12T13:26:19.383Z,0
2018-07-12T13:28:18.181Z,0
2018-07-12T13:30:17.965Z,0
2018-07-12T13:32:17.774Z,2.2
2018-07-12T13:34:18.602Z,0
2018-07-12T13:36:17.844Z,0
2018-07-12T13:38:18.650Z,0
2018-07-12T13:40:17.972Z,0
2018-07-12T13:42:17.753Z,0
2018-07-12T13:44:18.536Z,0
2018-07-12T13:46:18.638Z,0
2018-07-12T13:48:18.457Z,0.6
2018-07-12T13:50:18.270Z,0
2018-07-12T13:52:18.360Z,0
2018-07-12T13:54:18.226Z,0
2018-07-12T13:56:18.482Z,0
2018-07-12T13:58:18.279Z,0
2018-07-12T14:00:18.085Z,0
2018-07-12T14:02:17.896Z,0
2018-07-12T14:04:18.715Z,0
2018-07-12T14:06:17.891Z,0
2018-07-12T14:08:18.726Z,0
2018-07-12T14:10:18.021Z,0
2018-07-12T14:12:17.809Z,0
2018-07-12T14:14:18.646Z,0
2018-07-12T14:16:18.333Z,0
2018-07-12T14:18:18.215Z,0
2018-07-12T14:20:18.014Z,0
2018-07-12T14:22:18.596Z,0
2018-07-12T14:24:18.403Z,0
2018-07-12T14:26:17.975Z,0
2018-07-12T14:28:17.797Z,0
2018-07-12T14:30:18.602Z,0
2018-07-12T14:32:18.407Z,0
2018-07-12T14:34:18.212Z,0
2018-07-12T14:36:17.835Z,0
2018-07-12T14:38:18.651Z,0
2018-07-12T14:40:18.010Z,0
2018-07-12T14:42:17.818Z,0
2018-07-12T14:44:18.645Z,0
2018-07-12T14:46:18.713Z,0
2018-07-12T14:48:18.521Z,0
2018-07-12T14:50:18.359Z,0
2018-07-12T14:52:18.145Z,0
2018-07-12T14:54:17.968Z,0
2018-07-12T14:56:18.593Z,0
2018-07-12T14:58:18.398Z,0
2018-07-12T15:00:18.224Z,0
2018-07-12T15:02:18.036Z,0
2018-07-12T15:04:17.875Z,1.4
2018-07-12T15:06:18.640Z,0
2018-07-12T15:08:18.428Z,0
2018-07-12T15:10:18.717Z,0
2018-07-12T15:12:18.518Z,0
2018-07-12T15:14:18.329Z,0
2018-07-12T15:16:18.612Z,0
2018-07-12T15:18:18.503Z,0
2018-07-12T15:20:18.334Z,0
2018-07-12T15:22:18.384Z,0
2018-07-12T15:24:18.157Z,0
2018-07-12T15:26:17.924Z,0
2018-07-12T15:28:17.788Z,0
2018-07-12T15:30:18.594Z,0
2018-07-12T15:32:18.400Z,0
2018-07-12T15:34:18.221Z,0
2018-07-12T15:36:17.850Z,0
2018-07-12T15:38:18.650Z,0
2018-07-12T15:40:17.955Z,0
2018-07-12T15:42:17.779Z,0
2018-07-12T15:44:18.592Z,0
2018-07-12T15:46:18.137Z,0
2018-07-12T15:48:17.937Z,0
2018-07-12T15:50:18.787Z,0
2018-07-12T15:52:18.602Z,0
2018-07-12T15:54:18.412Z,0
2018-07-12T15:56:18.578Z,0
2018-07-12T15:58:18.405Z,0
2018-07-12T16:00:18.223Z,0
2018-07-12T16:02:18.040Z,0
2018-07-12T16:04:17.859Z,0
2018-07-12T16:06:18.494Z,0
2018-07-12T16:08:18.288Z,0
2018-07-12T16:10:18.558Z,0
2018-07-12T16:12:18.357Z,0
2018-07-12T16:14:18.149Z,0
2018-07-12T16:16:18.721Z,0
2018-07-12T16:18:18.596Z,0
2018-07-12T16:20:18.428Z,0
2018-07-12T16:22:18.239Z,0
2018-07-12T16:24:18.055Z,0
2018-07-12T16:26:18.294Z,0
2018-07-12T16:28:18.120Z,0
2018-07-12T16:30:17.932Z,0
2018-07-12T16:32:17.734Z,0
2018-07-12T16:34:18.539Z,0
2018-07-12T16:36:18.123Z,0
2018-07-12T16:38:17.928Z,0
2018-07-12T16:40:18.216Z,0
2018-07-12T16:42:18.028Z,0.1
2018-07-12T16:44:17.841Z,0
2018-07-12T16:46:18.422Z,0
2018-07-12T16:48:18.239Z,0
2018-07-12T16:50:18.070Z,0
2018-07-12T16:52:18.172Z,0
2018-07-12T16:54:17.984Z,0
2018-07-12T16:56:18.539Z,0
2018-07-12T16:58:18.356Z,0
2018-07-12T17:00:18.184Z,0
2018-07-12T17:02:18.019Z,0
2018-07-12T17:04:17.852Z,0
2018-07-12T17:06:17.960Z,0
2018-07-12T17:08:17.797Z,0
2018-07-12T17:10:18.072Z,0
2018-07-12T17:12:17.890Z,0
2018-07-12T17:14:18.731Z,0
2018-07-12T17:16:18.386Z,0
2018-07-12T17:18:18.309Z,0
2018-07-12T17:20:18.140Z,0
2018-07-12T17:22:17.959Z,0
2018-07-12T17:24:17.746Z,0
2018-07-12T17:26:17.873Z,0
2018-07-12T17:28:18.665Z,0
2018-07-12T17:30:18.557Z,0
2018-07-12T17:32:18.348Z,0
2018-07-12T17:34:18.161Z,0
2018-07-12T17:36:17.917Z,0
2018-07-12T17:38:18.717Z,0
2018-07-12T17:40:18.032Z,0
2018-07-12T17:42:17.807Z,0
2018-07-12T17:44:18.618Z,0
2018-07-12T17:46:17.881Z,0.2
2018-07-12T17:48:18.695Z,0
2018-07-12T17:50:18.578Z,0
2018-07-12T17:52:18.364Z,0
2018-07-12T17:54:18.179Z,0
2018-07-12T17:56:18.439Z,0
2018-07-12T17:58:18.416Z,0
2018-07-12T18:00:18.211Z,0
2018-07-12T18:02:18.005Z,0
2018-07-12T18:04:17.821Z,0
2018-07-12T18:06:18.637Z,0
2018-07-12T18:08:18.455Z,0
2018-07-12T18:10:18.721Z,0
2018-07-12T18:12:18.531Z,0
2018-07-12T18:14:18.431Z,0
2018-07-12T18:16:18.712Z,0
2018-07-12T18:18:18.605Z,0.1
2018-07-12T18:20:18.433Z,0
2018-07-12T18:22:18.423Z,0
2018-07-12T18:24:18.303Z,0
2018-07-12T18:26:17.912Z,0
2018-07-12T18:28:18.712Z,0
2018-07-12T18:30:18.554Z,0
2018-07-12T18:32:18.343Z,0
2018-07-12T18:34:18.159Z,0
2018-07-12T18:36:18.069Z,0
2018-07-12T18:38:17.886Z,0
2018-07-12T18:40:18.248Z,0
2018-07-12T18:42:18.069Z,0
2018-07-12T18:44:17.872Z,0
2018-07-12T18:46:18.501Z,0
2018-07-12T18:48:18.296Z,0
2018-07-12T18:50:18.105Z,0
2018-07-12T18:52:17.897Z,1.4
2018-07-12T18:54:18.668Z,0
2018-07-12T18:56:17.934Z,0
2018-07-12T18:58:17.752Z,0
2018-07-12T19:00:18.600Z,0
2018-07-12T19:02:18.431Z,0
2018-07-12T19:04:18.236Z,0
2018-07-12T19:06:17.976Z,0
2018-07-12T19:08:17.757Z,0
2018-07-12T19:10:18.035Z,0
2018-07-12T19:12:17.848Z,0
2018-07-12T19:14:18.635Z,0
2018-07-12T19:16:18.529Z,0
2018-07-12T19:18:18.450Z,0
2018-07-12T19:20:18.280Z,0
2018-07-12T19:22:18.314Z,0
2018-07-12T19:24:18.089Z,0
2018-07-12T19:26:18.688Z,0
2018-07-12T19:28:18.503Z,0
2018-07-12T19:30:18.397Z,0
2018-07-12T19:32:17.993Z,0
2018-07-12T19:34:17.874Z,0
2018-07-12T19:36:18.571Z,0
2018-07-12T19:38:18.373Z,0
2018-07-12T19:40:18.666Z,0
2018-07-12T19:42:18.506Z,0
2018-07-12T19:44:18.301Z,0
2018-07-12T19:46:18.371Z,0
2018-07-12T19:48:18.180Z,0
2018-07-12T19:50:17.965Z,0
2018-07-12T19:52:17.787Z,0
2018-07-12T19:54:18.610Z,0
2018-07-12T19:56:18.161Z,0
2018-07-12T19:58:17.975Z,0
2018-07-12T20:00:17.935Z,0
2018-07-12T20:02:17.774Z,0
2018-07-12T20:04:18.593Z,0
2018-07-12T20:06:18.691Z,0
2018-07-12T20:08:18.509Z,0
2018-07-12T20:10:17.788Z,0
2018-07-12T20:12:18.590Z,0
2018-07-12T20:14:18.377Z,0
2018-07-12T20:16:18.021Z,0
2018-07-12T20:18:17.909Z,0
2018-07-12T20:20:18.754Z,0
2018-07-12T20:22:18.561Z,0
2018-07-12T20:24:18.367Z,0
2018-07-12T20:26:18.010Z,0
2018-07-12T20:28:18.001Z,0
2018-07-12T20:30:17.828Z,0
2018-07-12T20:32:17.817Z,0
2018-07-12T20:34:18.653Z,0
2018-07-12T20:36:18.738Z,0
2018-07-12T20:38:18.587Z,0
2018-07-12T20:40:17.897Z,0
2018-07-12T20:42:18.711Z,0
2018-07-12T20:44:18.536Z,0
2018-07-12T20:46:18.096Z,0
2018-07-12T20:48:17.887Z,0
2018-07-12T20:50:18.723Z,0
2018-07-12T20:52:18.552Z,0
2018-07-12T20:54:18.357Z,0
2018-07-12T20:56:18.731Z,0
2018-07-12T20:58:18.527Z,0
2018-07-12T21:00:18.352Z,0
2018-07-12T21:02:18.157Z,0
2018-07-12T21:04:17.969Z,0.2
2018-07-12T21:06:18.072Z,0
2018-07-12T21:08:17.885Z,0
2018-07-12T21:10:18.230Z,0
2018-07-12T21:12:18.066Z,0
2018-07-12T21:14:17.867Z,0
2018-07-12T21:16:18.423Z,0
2018-07-12T21:18:18.294Z,0
2018-07-12T21:20:18.121Z,0
2018-07-12T21:22:17.921Z,0
2018-07-12T21:24:18.728Z,0
2018-07-12T21:26:17.789Z,0
2018-07-12T21:28:18.595Z,0
2018-07-12T21:30:18.432Z,0
2018-07-12T21:32:18.233Z,0
2018-07-12T21:34:18.009Z,0
2018-07-12T21:36:18.434Z,0
2018-07-12T21:38:18.249Z,0
2018-07-12T21:40:18.560Z,0
2018-07-12T21:42:18.362Z,0
2018-07-12T21:44:18.226Z,0
2018-07-12T21:46:18.378Z,0
2018-07-12T21:48:18.200Z,0
2018-07-12T21:50:18.012Z,0
2018-07-12T21:52:17.793Z,0
2018-07-12T21:54:18.618Z,0
2018-07-12T21:56:18.176Z,0
2018-07-12T21:58:17.985Z,0
2018-07-12T22:00:17.804Z,0
2018-07-12T22:02:18.476Z,0
2018-07-12T22:04:18.299Z,0
2018-07-12T22:06:18.424Z,0
2018-07-12T22:08:18.228Z,0
2018-07-12T22:10:18.496Z,0
2018-07-12T22:12:18.313Z,0
2018-07-12T22:14:18.124Z,0
2018-07-12T22:16:18.351Z,0
2018-07-12T22:18:18.231Z,0
2018-07-12T22:20:18.052Z,0
2018-07-12T22:22:17.845Z,0
2018-07-12T22:24:18.641Z,0
2018-07-12T22:26:17.742Z,0
2018-07-12T22:28:18.540Z,0
2018-07-12T22:30:18.345Z,0
2018-07-12T22:32:18.312Z,0
2018-07-12T22:34:18.101Z,0
2018-07-12T22:36:18.649Z,0
2018-07-12T22:38:18.452Z,0
2018-07-12T22:40:18.708Z,0
2018-07-12T22:42:18.503Z,0
2018-07-12T22:44:18.321Z,0
2018-07-12T22:46:18.517Z,0
2018-07-12T22:48:18.721Z,0
2018-07-12T22:50:18.815Z,0
2018-07-12T22:52:18.613Z,0
2018-07-12T22:54:18.429Z,0
2018-07-12T22:56:18.012Z,0
2018-07-12T22:58:17.835Z,0
2018-07-12T23:00:18.745Z,0
2018-07-12T23:02:18.356Z,0
2018-07-12T23:04:18.167Z,0
2018-07-12T23:06:18.569Z,0
2018-07-12T23:08:18.373Z,0
2018-07-12T23:10:18.720Z,0
2018-07-12T23:12:18.562Z,0
2018-07-12T23:14:18.360Z,0
2018-07-12T23:16:17.974Z,0
2018-07-12T23:18:17.855Z,0
2018-07-12T23:20:18.655Z,0
2018-07-12T23:22:18.475Z,0
2018-07-12T23:24:18.297Z,0
2018-07-12T23:26:17.955Z,0
2018-07-12T23:28:17.792Z,0
2018-07-12T23:30:18.665Z,0
2018-07-12T23:32:18.494Z,0
2018-07-12T23:34:18.313Z,0
2018-07-12T23:36:17.929Z,0
2018-07-12T23:38:18.734Z,0
2018-07-12T23:40:18.135Z,0
2018-07-12T23:42:17.947Z,0
2018-07-12T23:44:17.739Z,0
2018-07-12T23:46:17.832Z,6.3
2018-07-12T23:48:18.645Z,0
2018-07-12T23:50:18.495Z,0
2018-07-12T23:52:18.327Z,0
2018-07-12T23:54:18.117Z,0
2018-07-12T23:56:18.219Z,0
2018-07-12T23:58:18.002Z,0
